Time;durP1;ratioP1;P1;durP2;ratioP2;P2;SDS_P1;SDS_P2;PMS_P1;PMS_P2;Temp;Humidity;BMP_temperature;BMP_pressure;BME280_temperature;BME280_humidity;BME280_pressure;Samples;Min_cycle;Max_cycle;Signal;HPM_P1;HPM_P2
2023/08/21 00:00:04;;;;;;;8.57;2.67;;;;;;;23.21;59.81;102183.66;5003165;28;20029;-65
2023/08/21 00:02:29;;;;;;;7.35;3.22;;;;;;;23.14;60.24;102185.94;5009207;28;20084;-65
2023/08/21 00:04:55;;;;;;;3.75;2.20;;;;;;;23.09;61.76;102178.16;5005042;28;20273;-65
2023/08/21 00:07:20;;;;;;;4.93;2.90;;;;;;;23.19;60.34;102188.31;5020443;28;20101;-65
2023/08/21 00:09:45;;;;;;;7.80;2.88;;;;;;;23.04;60.87;102184.88;5014574;28;20068;-65
2023/08/21 00:12:11;;;;;;;6.63;2.67;;;;;;;22.91;61.06;102177.66;5011204;28;20392;-65
2023/08/21 00:14:36;;;;;;;6.13;2.78;;;;;;;22.92;62.42;102184.75;5009053;28;20440;-65
2023/08/21 00:17:03;;;;;;;6.18;2.33;;;;;;;22.99;60.87;102181.63;5012110;28;20056;-64
2023/08/21 00:19:28;;;;;;;6.05;2.75;;;;;;;23.13;60.63;102179.69;5006457;28;20128;-66
2023/08/21 00:21:53;;;;;;;4.43;2.60;;;;;;;22.96;61.57;102184.56;5007116;28;20520;-66
2023/08/21 00:24:19;;;;;;;5.60;2.20;;;;;;;22.76;62.49;102199.41;5007498;28;20036;-65
2023/08/21 00:26:44;;;;;;;6.80;3.17;;;;;;;22.71;61.55;102196.16;5014195;28;20035;-65
2023/08/21 00:29:09;;;;;;;7.53;2.38;;;;;;;22.64;61.98;102182.25;5004863;28;20053;-66
2023/08/21 00:31:34;;;;;;;6.10;2.60;;;;;;;22.40;64.01;102169.50;5007502;28;20401;-66
2023/08/21 00:34:00;;;;;;;5.57;2.50;;;;;;;22.23;63.69;102168.94;5015361;28;20286;-65
2023/08/21 00:36:25;;;;;;;8.85;2.88;;;;;;;22.24;63.33;102176.91;5003430;28;20337;-65
2023/08/21 00:38:50;;;;;;;4.22;2.50;;;;;;;22.28;63.12;102178.41;5007107;28;20056;-66
2023/08/21 00:41:16;;;;;;;5.43;2.42;;;;;;;22.30;63.04;102164.88;5007520;28;20029;-65
2023/08/21 00:43:41;;;;;;;7.57;3.00;;;;;;;22.27;63.70;102170.44;5007959;28;20376;-65
2023/08/21 00:46:07;;;;;;;6.07;2.60;;;;;;;22.40;62.20;102164.13;5014311;28;20036;-66
2023/08/21 00:48:33;;;;;;;6.60;2.55;;;;;;;22.28;62.65;102166.78;5011731;28;20657;-67
2023/08/21 00:50:58;;;;;;;6.15;2.83;;;;;;;22.12;62.64;102181.31;5013223;28;20062;-67
2023/08/21 00:53:24;;;;;;;7.82;3.10;;;;;;;22.14;62.71;102173.09;5009972;28;20063;-67
2023/08/21 00:55:50;;;;;;;5.25;2.88;;;;;;;22.06;63.44;102176.31;5014200;28;20034;-67
2023/08/21 00:58:17;;;;;;;8.68;2.85;;;;;;;22.07;63.21;102177.16;5004925;28;20484;-67
2023/08/21 01:00:47;;;;;;;6.47;2.88;;;;;;;22.03;63.30;102178.34;5014672;28;20036;-66
2023/08/21 01:03:12;;;;;;;6.57;2.95;;;;;;;22.01;63.22;102183.84;5009010;28;20034;-65
2023/08/21 01:05:38;;;;;;;5.78;3.13;;;;;;;22.03;63.28;102181.91;5002411;28;20176;-64
2023/08/21 01:08:21;;;;;;;8.20;3.28;;;;;;;22.18;63.16;102180.03;5008903;28;20408;-65
2023/08/21 01:10:58;;;;;;;9.05;3.00;;;;;;;22.10;63.44;102185.03;5012097;28;20030;-65
2023/08/21 01:13:36;;;;;;;5.82;2.80;;;;;;;21.74;64.92;102175.75;5005636;28;20185;-66
2023/08/21 01:16:04;;;;;;;8.80;3.10;;;;;;;21.50;65.51;102177.38;5003860;28;20497;-65
2023/08/21 01:18:30;;;;;;;6.30;3.00;;;;;;;21.56;65.25;102176.97;5003598;28;20185;-65
2023/08/21 01:20:58;;;;;;;6.70;3.22;;;;;;;21.69;65.36;102185.13;5010889;28;20033;-65
2023/08/21 01:23:30;;;;;;;7.38;3.28;;;;;;;21.67;65.05;102177.13;5008003;28;20038;-65
2023/08/21 01:25:55;;;;;;;;;;;;;;;21.93;62.54;102174.53;4999475;28;20492;-65
2023/08/21 01:28:20;;;;;;;6.43;2.50;;;;;;;21.73;64.89;102163.28;5011336;28;19913;-65
2023/08/21 01:30:47;;;;;;;7.22;3.10;;;;;;;21.70;65.05;102160.78;5009601;28;20107;-65
2023/08/21 01:33:16;;;;;;;7.32;2.63;;;;;;;21.63;65.44;102163.00;5013050;28;20030;-65
2023/08/21 01:35:42;;;;;;;6.65;3.10;;;;;;;21.50;66.03;102145.94;5007939;28;20534;-64
2023/08/21 01:38:07;;;;;;;5.82;2.70;;;;;;;21.48;65.50;102145.16;5009770;28;20037;-65
2023/08/21 01:40:33;;;;;;;5.05;2.50;;;;;;;21.41;64.09;102146.53;5013958;28;20025;-65
2023/08/21 01:42:58;;;;;;;5.30;2.95;;;;;;;21.39;64.56;102153.84;5003817;28;20393;-65
2023/08/21 01:45:23;;;;;;;6.35;3.20;;;;;;;21.36;64.31;102152.22;5004822;28;20481;-65
2023/08/21 01:47:49;;;;;;;6.50;2.88;;;;;;;21.32;64.76;102148.00;5014457;28;20037;-65
2023/08/21 01:50:14;;;;;;;6.43;2.80;;;;;;;21.29;65.09;102155.38;5012802;28;20025;-65
2023/08/21 01:52:39;;;;;;;6.60;2.80;;;;;;;21.23;65.29;102145.00;5010955;28;20030;-65
2023/08/21 01:55:07;;;;;;;4.22;2.75;;;;;;;21.11;66.01;102155.56;5001790;28;20536;-65
2023/08/21 01:57:33;;;;;;;6.10;3.10;;;;;;;21.09;65.31;102152.13;5014788;28;20034;-66
2023/08/21 01:59:58;;;;;;;6.90;2.85;;;;;;;21.07;65.87;102158.56;5009459;28;20033;-65
2023/08/21 02:02:23;;;;;;;6.70;3.15;;;;;;;21.08;65.55;102158.47;5015599;28;20030;-65
2023/08/21 02:04:49;;;;;;;6.93;2.88;;;;;;;21.09;65.55;102160.19;5000997;28;20066;-65
2023/08/21 02:07:14;;;;;;;8.20;3.55;;;;;;;21.07;65.56;102159.41;4994947;28;20575;-67
2023/08/21 02:09:40;;;;;;;4.90;3.13;;;;;;;21.05;66.03;102163.19;5009136;28;20487;-67
2023/08/21 02:12:06;;;;;;;8.98;3.20;;;;;;;21.00;66.07;102170.69;5019955;28;20022;-67
2023/08/21 02:14:31;;;;;;;9.20;3.63;;;;;;;20.94;66.53;102171.94;5006288;28;20058;-67
2023/08/21 02:16:56;;;;;;;6.45;2.95;;;;;;;20.93;66.50;102178.25;5006000;28;20032;-67
2023/08/21 02:19:22;;;;;;;5.70;3.55;;;;;;;20.89;66.93;102168.66;5010956;28;20037;-67
2023/08/21 02:21:47;;;;;;;5.50;3.70;;;;;;;20.79;67.09;102162.09;5006617;28;20064;-67
2023/08/21 02:24:12;;;;;;;5.82;3.78;;;;;;;20.68;67.68;102168.16;5011024;28;20029;-67
2023/08/21 02:26:37;;;;;;;6.35;3.53;;;;;;;20.52;68.47;102170.94;5021378;28;20437;-67
2023/08/21 02:29:03;;;;;;;8.60;3.53;;;;;;;20.36;68.99;102170.94;5003061;28;20080;-67
2023/08/21 02:31:29;;;;;;;8.50;3.53;;;;;;;20.48;68.35;102171.22;5002168;28;20071;-67
2023/08/21 02:33:54;;;;;;;5.70;3.65;;;;;;;20.26;69.01;102175.16;5012887;28;20032;-67
2023/08/21 02:36:19;;;;;;;5.82;3.63;;;;;;;20.04;69.90;102180.06;5015771;28;20057;-67
2023/08/21 02:38:44;;;;;;;6.07;3.10;;;;;;;20.20;69.13;102166.59;5015143;28;20092;-67
2023/08/21 02:41:10;;;;;;;5.72;3.30;;;;;;;20.36;68.57;102159.34;5016129;28;20076;-67
2023/08/21 02:43:35;;;;;;;6.13;3.42;;;;;;;20.34;68.49;102172.00;5009151;28;20030;-67
2023/08/21 02:46:00;;;;;;;5.00;3.22;;;;;;;20.55;67.38;102161.81;5004568;28;20026;-67
2023/08/21 02:48:26;;;;;;;4.50;2.90;;;;;;;20.64;67.05;102169.31;5019035;28;20054;-67
2023/08/21 02:50:51;;;;;;;6.28;3.25;;;;;;;20.51;68.16;102162.94;5019040;28;20354;-67
2023/08/21 02:53:16;;;;;;;5.07;3.10;;;;;;;20.52;68.68;102165.56;5015127;28;20559;-67
2023/08/21 02:55:41;;;;;;;9.20;3.60;;;;;;;20.56;67.72;102166.22;5007767;28;20064;-67
2023/08/21 02:58:07;;;;;;;6.03;3.60;;;;;;;20.64;67.38;102166.63;5022767;28;20477;-67
2023/08/21 03:00:32;;;;;;;3.35;3.00;;;;;;;20.67;67.10;102171.81;5009807;28;20045;-67
2023/08/21 03:02:58;;;;;;;8.60;3.50;;;;;;;20.61;67.55;102172.16;5003486;28;20030;-67
2023/08/21 03:05:23;;;;;;;7.13;3.63;;;;;;;20.54;67.47;102165.47;5021198;28;20041;-67
2023/08/21 03:07:48;;;;;;;6.85;3.50;;;;;;;20.51;67.10;102163.81;5011936;28;20029;-67
2023/08/21 03:10:14;;;;;;;5.32;3.50;;;;;;;20.50;67.45;102159.41;5006832;28;20028;-67
2023/08/21 03:12:39;;;;;;;8.63;3.70;;;;;;;20.48;67.34;102163.16;5009823;28;20076;-67
2023/08/21 03:15:05;;;;;;;4.07;3.22;;;;;;;20.49;67.38;102162.19;5006514;28;20437;-67
2023/08/21 03:17:30;;;;;;;5.30;3.65;;;;;;;20.44;67.03;102162.44;5008443;28;20145;-67
2023/08/21 03:19:55;;;;;;;7.88;3.28;;;;;;;20.47;67.12;102162.28;5020541;28;20030;-67
2023/08/21 03:22:21;;;;;;;5.72;3.55;;;;;;;20.39;67.45;102165.41;5007556;28;20099;-67
2023/08/21 03:24:46;;;;;;;8.30;3.85;;;;;;;20.36;67.78;102162.88;5018446;28;20491;-67
2023/08/21 03:27:11;;;;;;;7.10;3.20;;;;;;;20.28;68.29;102167.84;5009079;28;21010;-65
2023/08/21 03:29:37;;;;;;;10.40;3.45;;;;;;;20.34;67.88;102172.88;5009240;28;20202;-65
2023/08/21 03:32:02;;;;;;;5.47;3.53;;;;;;;20.34;67.70;102170.19;5003405;28;20026;-65
2023/08/21 03:34:27;;;;;;;4.47;2.92;;;;;;;20.34;67.20;102172.88;5012495;28;20026;-64
2023/08/21 03:36:53;;;;;;;3.60;2.90;;;;;;;20.37;67.35;102169.97;5020074;28;20116;-65
2023/08/21 03:39:18;;;;;;;4.78;3.35;;;;;;;20.43;67.20;102173.28;5019519;28;20034;-64
2023/08/21 03:41:43;;;;;;;4.50;2.92;;;;;;;20.47;66.92;102174.78;5016879;28;20101;-65
2023/08/21 03:44:09;;;;;;;4.18;3.25;;;;;;;20.41;67.11;102176.03;5008482;28;20033;-65
2023/08/21 03:46:34;;;;;;;6.70;3.10;;;;;;;20.32;67.41;102171.22;5011232;28;20033;-65
2023/08/21 03:48:59;;;;;;;3.60;3.28;;;;;;;20.41;67.45;102167.97;5010071;28;20037;-65
2023/08/21 03:51:25;;;;;;;3.70;2.90;;;;;;;20.44;67.13;102167.81;5012939;28;20034;-64
2023/08/21 03:53:50;;;;;;;11.35;3.25;;;;;;;20.34;67.35;102172.88;5007226;28;20041;-65
2023/08/21 03:56:15;;;;;;;5.13;3.28;;;;;;;20.25;67.20;102165.38;5021867;28;20024;-65
2023/08/21 03:58:41;;;;;;;6.43;3.33;;;;;;;20.20;67.72;102170.16;5016524;28;20022;-66
2023/08/21 04:01:06;;;;;;;5.63;3.72;;;;;;;20.08;68.40;102169.03;5016007;28;20096;-66
2023/08/21 04:03:31;;;;;;;5.43;3.42;;;;;;;20.07;68.60;102166.47;5018631;28;20030;-64
2023/08/21 04:05:56;;;;;;;4.90;3.67;;;;;;;20.01;67.93;102166.81;5016045;28;20057;-65
2023/08/21 04:08:22;;;;;;;5.00;3.50;;;;;;;19.91;69.14;102161.13;5013824;28;20397;-65
2023/08/21 04:10:48;;;;;;;10.73;3.88;;;;;;;19.83;69.28;102166.06;5008578;28;20053;-65
2023/08/21 04:13:13;;;;;;;5.40;3.42;;;;;;;19.85;68.89;102175.75;5013484;28;20517;-65
2023/08/21 04:15:38;;;;;;;4.10;3.13;;;;;;;19.85;68.96;102169.53;5012515;28;20026;-64
2023/08/21 04:18:04;;;;;;;5.70;3.70;;;;;;;19.85;70.47;102172.22;5004591;28;20026;-65
2023/08/21 04:20:30;;;;;;;5.55;3.50;;;;;;;19.80;68.58;102171.59;5015997;28;20030;-65
2023/08/21 04:22:55;;;;;;;6.38;3.92;;;;;;;19.65;69.02;102172.50;5002996;28;20037;-65
2023/08/21 04:25:21;;;;;;;4.78;3.17;;;;;;;19.66;69.33;102171.53;5019936;28;20814;-65
2023/08/21 04:27:46;;;;;;;7.70;4.30;;;;;;;19.66;68.76;102168.84;5010644;28;20032;-65
2023/08/21 04:30:12;;;;;;;8.07;4.38;;;;;;;19.54;70.20;102176.63;5007209;28;20103;-65
2023/08/21 04:32:37;;;;;;;8.07;3.85;;;;;;;19.51;69.89;102184.84;5007721;28;20521;-66
2023/08/21 04:35:02;;;;;;;9.50;4.45;;;;;;;19.64;69.44;102193.09;5002486;28;20040;-65
2023/08/21 04:37:28;;;;;;;5.57;3.40;;;;;;;19.74;68.90;102199.66;5001084;28;20030;-65
2023/08/21 04:39:54;;;;;;;10.57;4.00;;;;;;;19.64;70.10;102193.09;5023076;28;20068;-65
2023/08/21 04:42:19;;;;;;;6.80;3.90;;;;;;;19.47;70.74;102204.72;5007779;28;20052;-65
2023/08/21 04:44:45;;;;;;;7.70;3.90;;;;;;;19.36;71.47;102199.97;5010838;28;20048;-65
2023/08/21 04:47:26;;;;;;;7.18;3.65;;;;;;;19.49;71.03;102213.59;5010338;28;20033;-65
2023/08/21 04:49:52;;;;;;;4.80;3.77;;;;;;;19.43;71.70;102195.13;5025565;28;20028;-64
2023/08/21 04:52:18;;;;;;;4.40;3.72;;;;;;;19.41;72.10;102198.88;5020330;28;20025;-65
2023/08/21 04:54:44;;;;;;;4.38;3.72;;;;;;;19.59;72.46;102198.69;5012678;28;20037;-65
2023/08/21 04:57:09;;;;;;;6.80;4.20;;;;;;;19.59;72.50;102195.16;5011495;28;20032;-65
2023/08/21 04:59:36;;;;;;;7.20;4.45;;;;;;;19.49;73.18;102194.81;5011535;28;20426;-65
2023/08/21 05:02:01;;;;;;;7.63;4.10;;;;;;;19.52;72.75;102207.16;5014285;28;20044;-64
2023/08/21 05:04:26;;;;;;;7.20;4.47;;;;;;;19.45;72.11;102214.69;5014991;28;20038;-65
2023/08/21 05:06:52;;;;;;;6.40;4.38;;;;;;;19.54;72.94;102213.31;5013604;28;20042;-65
2023/08/21 05:09:17;;;;;;;8.05;4.40;;;;;;;19.48;72.64;102213.66;5005381;28;20338;-64
2023/08/21 05:11:42;;;;;;;6.45;4.43;;;;;;;19.67;74.44;102208.13;5010699;28;20480;-65
2023/08/21 05:14:07;;;;;;;6.18;4.40;;;;;;;19.76;73.49;102215.66;5015239;28;20030;-65
2023/08/21 05:16:33;;;;;;;6.03;4.38;;;;;;;19.86;71.48;102217.75;5003777;28;20029;-66
2023/08/21 05:18:58;;;;;;;6.88;4.30;;;;;;;19.71;72.13;102212.38;5005184;28;20026;-66
2023/08/21 05:21:24;;;;;;;8.73;4.50;;;;;;;19.87;71.73;102211.44;5018820;28;20029;-65
2023/08/21 05:23:49;;;;;;;7.30;4.68;;;;;;;19.95;71.89;102210.13;5006016;28;20061;-65
2023/08/21 05:26:14;;;;;;;5.97;4.25;;;;;;;19.99;72.23;102206.31;5008221;28;20507;-65
2023/08/21 05:28:39;;;;;;;7.32;3.85;;;;;;;19.99;71.61;102219.72;5014650;28;20034;-65
2023/08/21 05:31:05;;;;;;;8.35;4.47;;;;;;;19.96;71.89;102219.88;5009794;28;20064;-65
2023/08/21 05:33:30;;;;;;;5.97;4.63;;;;;;;20.00;71.41;102224.13;5004739;28;20107;-65
2023/08/21 05:35:57;;;;;;;8.63;5.13;;;;;;;20.06;71.31;102227.34;5017142;28;20037;-65
2023/08/21 05:38:22;;;;;;;6.32;4.85;;;;;;;19.98;72.43;102226.06;5007806;28;20037;-66
2023/08/21 05:40:48;;;;;;;9.80;5.60;;;;;;;19.71;73.52;102233.84;5005356;28;20030;-66
2023/08/21 05:43:13;;;;;;;8.77;5.40;;;;;;;19.88;72.72;102234.63;5008401;28;20034;-67
2023/08/21 05:45:38;;;;;;;10.75;5.53;;;;;;;20.03;72.83;102235.56;5013726;28;20033;-67
2023/08/21 05:48:04;;;;;;;7.88;5.30;;;;;;;20.23;73.08;102236.22;5007318;28;20026;-67
2023/08/21 05:50:29;;;;;;;9.27;4.50;;;;;;;20.44;71.62;102229.59;5015800;28;20041;-67
2023/08/21 05:52:54;;;;;;;9.25;5.20;;;;;;;20.59;71.38;102233.22;5002055;28;20076;-66
2023/08/21 05:55:20;;;;;;;10.45;5.07;;;;;;;20.68;71.11;102226.44;5012629;28;20025;-67
2023/08/21 05:57:45;;;;;;;8.38;5.32;;;;;;;20.76;70.45;102227.69;5019200;28;20473;-67
2023/08/21 06:00:12;;;;;;;7.00;5.70;;;;;;;20.86;72.50;102236.06;5017067;28;20447;-66
2023/08/21 06:02:37;;;;;;;13.32;7.38;;;;;;;20.90;71.17;102232.22;5008841;28;20069;-66
2023/08/21 06:05:03;;;;;;;10.98;7.03;;;;;;;20.91;70.38;102233.09;5003856;28;20053;-66
2023/08/21 06:07:28;;;;;;;8.15;6.07;;;;;;;20.93;70.07;102231.16;5018572;28;20040;-66
2023/08/21 06:09:53;;;;;;;9.15;7.13;;;;;;;21.01;70.96;102239.63;5021233;28;20021;-66
2023/08/21 06:12:19;;;;;;;14.85;6.90;;;;;;;21.11;68.96;102227.31;5014356;28;20034;-66
2023/08/21 06:14:44;;;;;;;10.07;6.80;;;;;;;21.18;68.87;102241.28;5002715;28;20038;-66
2023/08/21 06:17:10;;;;;;;8.40;6.10;;;;;;;21.15;68.65;102237.78;5009821;28;20026;-67
2023/08/21 06:19:35;;;;;;;12.20;6.97;;;;;;;21.16;68.61;102241.34;5015190;28;20497;-66
2023/08/21 06:22:00;;;;;;;9.60;7.20;;;;;;;21.22;68.46;102240.13;5002634;28;20030;-66
2023/08/21 06:24:26;;;;;;;10.50;6.65;;;;;;;21.28;68.51;102242.41;5011315;28;20453;-66
2023/08/21 06:26:52;;;;;;;13.00;6.93;;;;;;;21.32;69.45;102244.84;5006626;28;20111;-66
2023/08/21 06:29:17;;;;;;;10.82;7.15;;;;;;;21.37;68.65;102245.41;5015704;28;20032;-67
2023/08/21 06:31:43;;;;;;;11.38;7.18;;;;;;;21.44;68.20;102251.25;5006489;28;20026;-67
2023/08/21 06:34:08;;;;;;;12.18;7.72;;;;;;;21.44;68.04;102253.09;5014221;28;20044;-67
2023/08/21 06:36:33;;;;;;;12.95;7.55;;;;;;;21.45;68.67;102249.44;5008255;28;20113;-67
2023/08/21 06:38:59;;;;;;;14.65;7.57;;;;;;;21.52;68.28;102248.97;5012171;28;20029;-67
2023/08/21 06:41:25;;;;;;;13.35;7.53;;;;;;;21.56;67.23;102253.19;5015658;28;20385;-67
2023/08/21 06:43:50;;;;;;;12.60;7.35;;;;;;;21.69;66.95;102253.28;5009714;28;20026;-67
2023/08/21 06:46:16;;;;;;;10.00;6.03;;;;;;;21.83;66.39;102258.63;5016949;28;20030;-67
2023/08/21 06:48:42;;;;;;;12.18;6.90;;;;;;;21.93;66.13;102256.19;5015105;28;20030;-65
2023/08/21 06:51:07;;;;;;;12.98;6.53;;;;;;;22.05;64.84;102260.75;5016706;28;20025;-65
2023/08/21 06:53:34;;;;;;;13.80;6.85;;;;;;;22.14;64.96;102251.22;5016140;28;20040;-67
2023/08/21 06:55:59;;;;;;;9.73;6.95;;;;;;;22.26;64.67;102260.34;5014551;28;20026;-65
2023/08/21 06:58:25;;;;;;;15.35;8.05;;;;;;;22.30;65.74;102257.34;5009741;28;20092;-67
2023/08/21 07:00:50;;;;;;;12.65;7.20;;;;;;;22.41;65.04;102256.59;5008908;28;20030;-67
2023/08/21 07:03:15;;;;;;;13.25;6.72;;;;;;;22.48;64.47;102259.75;5011782;28;20022;-67
2023/08/21 07:05:40;;;;;;;10.00;6.78;;;;;;;22.54;64.73;102262.03;5010816;28;20081;-67
2023/08/21 07:08:06;;;;;;;10.43;6.43;;;;;;;;;;5011341;28;20021;-68
2023/08/21 07:10:37;;;;;;;10.80;6.47;;;;;;;22.72;63.66;102259.91;5005084;28;20029;-67
2023/08/21 07:13:03;;;;;;;11.10;6.45;;;;;;;22.93;62.45;102247.66;5011794;28;20088;-67
2023/08/21 07:15:29;;;;;;;11.27;5.75;;;;;;;23.08;62.02;102256.50;5005668;28;20037;-67
2023/08/21 07:17:55;;;;;;;9.38;5.72;;;;;;;23.20;61.60;102254.78;5016995;28;20033;-67
2023/08/21 07:20:21;;;;;;;11.82;5.50;;;;;;;23.31;60.79;102257.56;5012281;28;20465;-67
2023/08/21 07:22:46;;;;;;;12.13;5.90;;;;;;;23.50;61.35;102265.19;5009193;28;20025;-67
2023/08/21 07:25:12;;;;;;;10.80;4.95;;;;;;;23.67;60.15;102264.88;5005161;28;20161;-67
2023/08/21 07:27:37;;;;;;;9.52;5.30;;;;;;;23.78;59.24;102267.69;5016920;28;20025;-67
2023/08/21 07:30:03;;;;;;;9.38;5.43;;;;;;;23.88;60.07;102267.84;5006226;28;20128;-67
2023/08/21 07:32:28;;;;;;;10.43;5.25;;;;;;;23.86;61.67;102264.38;5012946;28;20030;-69
2023/08/21 07:34:54;;;;;;;10.07;5.60;;;;;;;23.87;59.30;102264.25;5013658;28;20033;-67
2023/08/21 07:37:19;;;;;;;10.27;6.63;;;;;;;23.67;58.93;102260.34;5010738;28;20048;-67
2023/08/21 07:39:44;;;;;;;9.68;6.30;;;;;;;23.76;58.95;102264.22;5019794;28;20088;-67
2023/08/21 07:42:13;;;;;;;10.93;5.93;;;;;;;23.85;59.80;102263.53;5010912;28;20042;-66
2023/08/21 07:44:39;;;;;;;9.63;5.30;;;;;;;23.98;59.15;102262.63;5017312;28;20101;-67
2023/08/21 07:47:05;;;;;;;12.75;6.15;;;;;;;24.05;58.34;102267.44;5009003;28;20092;-67
2023/08/21 07:49:34;;;;;;;9.73;5.25;;;;;;;24.13;58.98;102270.44;5014239;28;20030;-67
2023/08/21 07:51:59;;;;;;;6.38;5.55;;;;;;;24.13;58.69;102273.16;5007680;28;20025;-67
2023/08/21 07:54:24;;;;;;;10.85;5.65;;;;;;;24.18;58.76;102273.66;5010400;28;20034;-67
2023/08/21 07:56:50;;;;;;;7.57;4.85;;;;;;;24.30;58.36;102276.44;5011214;28;20443;-67
2023/08/21 07:59:16;;;;;;;12.45;5.68;;;;;;;24.48;56.74;102271.47;5011413;28;20041;-65
2023/08/21 08:01:41;;;;;;;8.52;5.78;;;;;;;24.71;56.04;102275.97;5012391;28;20083;-65
2023/08/21 08:04:07;;;;;;;10.95;5.05;;;;;;;25.07;54.79;102268.69;5016668;28;20037;-65
2023/08/21 08:06:33;;;;;;;8.82;4.82;;;;;;;25.62;53.56;102270.56;5015374;28;20073;-64
2023/08/21 08:08:58;;;;;;;11.85;6.03;;;;;;;26.13;52.46;102270.00;5014280;28;20023;-67
2023/08/21 08:11:24;;;;;;;9.07;5.75;;;;;;;26.51;51.80;102268.66;5013194;28;20026;-67
2023/08/21 08:13:49;;;;;;;11.55;5.95;;;;;;;27.01;49.83;102278.84;5007970;28;20036;-67
2023/08/21 08:16:16;;;;;;;11.18;6.28;;;;;;;27.06;49.87;102276.59;5009869;28;20419;-67
2023/08/21 08:18:41;;;;;;;8.80;5.95;;;;;;;26.91;48.28;102284.22;5029339;28;20540;-67
2023/08/21 08:21:07;;;;;;;11.30;6.13;;;;;;;26.77;49.78;102281.84;5022748;28;20100;-67
2023/08/21 08:23:32;;;;;;;11.18;6.38;;;;;;;26.83;50.19;102282.16;5007435;28;20045;-67
2023/08/21 08:25:57;;;;;;;7.88;5.28;;;;;;;27.10;49.34;102280.81;5012659;28;20496;-69
2023/08/21 08:28:22;;;;;;;9.75;6.03;;;;;;;27.28;48.15;102275.59;5006487;28;20022;-69
2023/08/21 08:30:48;;;;;;;12.05;5.82;;;;;;;27.44;47.77;102276.81;5005677;28;20350;-67
2023/08/21 08:33:13;;;;;;;14.77;6.20;;;;;;;28.00;46.57;102280.00;5010654;28;20459;-68
2023/08/21 08:35:40;;;;;;;10.53;6.40;;;;;;;27.83;46.80;102274.25;5008563;28;20062;-69
2023/08/21 08:38:05;;;;;;;10.25;5.45;;;;;;;27.71;47.85;102267.19;5021215;28;20316;-69
2023/08/21 08:40:31;;;;;;;9.65;5.88;;;;;;;28.04;45.60;102273.28;5014200;28;20026;-69
2023/08/21 08:42:56;;;;;;;8.60;4.93;;;;;;;28.09;47.40;102276.44;5016190;28;20029;-69
2023/08/21 08:45:30;;;;;;;11.68;5.55;;;;;;;27.68;46.03;102275.59;5018806;28;20302;-69
2023/08/21 08:47:57;;;;;;;10.15;5.15;;;;;;;27.88;45.85;102279.25;5010843;28;20032;-69
2023/08/21 08:50:23;;;;;;;9.07;5.25;;;;;;;27.86;44.57;102279.41;5015387;28;20033;-69
2023/08/21 08:52:48;;;;;;;8.27;5.15;;;;;;;27.63;45.35;102280.59;5013532;28;20033;-70
2023/08/21 08:55:14;;;;;;;8.65;5.47;;;;;;;27.34;45.44;102283.22;5013031;28;20396;-69
2023/08/21 08:57:39;;;;;;;14.50;5.50;;;;;;;27.13;45.81;102286.81;5001767;28;20042;-69
2023/08/21 09:00:05;;;;;;;11.70;5.90;;;;;;;27.04;47.42;102286.72;5004272;28;20052;-70
2023/08/21 09:02:31;;;;;;;10.75;5.68;;;;;;;26.96;46.51;102276.53;5007493;28;20413;-70
2023/08/21 09:04:56;;;;;;;10.75;4.88;;;;;;;26.90;47.64;102286.06;5006755;28;20049;-69
2023/08/21 09:07:21;;;;;;;9.10;3.70;;;;;;;27.24;46.23;102283.16;5019912;28;20033;-68
2023/08/21 09:09:52;;;;;;;7.72;3.88;;;;;;;27.72;43.69;102279.81;5008116;28;20089;-68
2023/08/21 09:12:18;;;;;;;9.57;3.80;;;;;;;27.72;42.72;102279.81;5012682;28;20030;-68
2023/08/21 09:14:45;;;;;;;9.32;3.60;;;;;;;28.07;43.75;102275.72;5000435;28;20045;-69
2023/08/21 09:17:11;;;;;;;11.73;4.10;;;;;;;28.47;42.82;102272.91;5005908;28;20405;-70
2023/08/21 09:19:36;;;;;;;9.13;3.80;;;;;;;29.90;41.15;102268.19;5009696;28;20060;-70
2023/08/21 09:22:14;;;;;;;6.75;3.20;;;;;;;30.44;39.12;102266.34;5014230;28;20036;-70
2023/08/21 09:24:40;;;;;;;7.25;3.63;;;;;;;31.37;37.31;102263.97;5003721;28;20084;-70
2023/08/21 09:27:16;;;;;;;6.68;3.28;;;;;;;32.14;36.69;102279.28;5006931;28;20045;-70
2023/08/21 09:29:42;;;;;;;12.75;3.55;;;;;;;33.06;33.75;102277.22;5005173;28;20030;-73
2023/08/21 09:32:07;;;;;;;8.93;4.07;;;;;;;32.35;33.20;102265.09;5006287;28;20044;-70
2023/08/21 09:34:37;;;;;;;6.38;3.08;;;;;;;32.91;34.10;102266.13;5006357;28;20049;-70
2023/08/21 09:37:07;;;;;;;10.52;3.50;;;;;;;32.95;34.93;102255.69;5005023;28;20421;-70
2023/08/21 09:39:35;;;;;;;6.65;2.00;;;;;;;32.54;35.11;102265.81;5004831;28;20045;-70
2023/08/21 09:42:01;;;;;;;4.55;2.75;;;;;;;31.54;34.32;102260.28;5011259;28;20075;-70
2023/08/21 09:44:27;;;;;;;11.52;2.90;;;;;;;30.72;36.76;102259.78;5015215;28;20033;-70
2023/08/21 09:46:52;;;;;;;5.50;1.90;;;;;;;31.66;35.46;102267.16;5007922;28;20397;-70
2023/08/21 09:49:20;;;;;;;6.82;1.80;;;;;;;32.21;36.62;102265.78;5017635;28;20469;-70
2023/08/21 09:51:45;;;;;;;6.85;1.98;;;;;;;33.07;32.96;102265.28;5013063;28;20037;-70
2023/08/21 09:54:11;;;;;;;6.67;2.07;;;;;;;33.54;32.54;102260.84;5000502;28;20076;-70
2023/08/21 09:56:37;;;;;;;6.30;2.10;;;;;;;33.81;31.28;102260.38;5009658;28;20280;-70
2023/08/21 09:59:03;;;;;;;6.85;1.80;;;;;;;34.23;29.33;102262.69;4998370;28;20508;-70
2023/08/21 10:01:32;;;;;;;5.50;1.55;;;;;;;34.47;29.17;102263.53;5011993;28;20034;-69
2023/08/21 10:04:00;;;;;;;9.05;1.58;;;;;;;34.62;29.00;102261.69;5009378;28;20408;-69
2023/08/21 10:06:25;;;;;;;6.68;1.90;;;;;;;34.33;28.44;102258.84;5010461;28;20045;-69
2023/08/21 10:08:54;;;;;;;3.65;1.73;;;;;;;34.07;28.97;102251.81;5014262;28;20022;-70
2023/08/21 10:11:20;;;;;;;4.72;1.50;;;;;;;33.60;29.94;102255.50;5010643;28;20487;-68
2023/08/21 10:13:46;;;;;;;4.35;1.77;;;;;;;33.60;29.48;102246.41;5018541;28;20034;-68
2023/08/21 10:16:13;;;;;;;5.88;1.77;;;;;;;32.12;28.94;102253.09;5011633;28;20370;-68
2023/08/21 10:18:43;;;;;;;6.28;1.40;;;;;;;31.84;32.33;102247.91;5009013;28;20022;-68
2023/08/21 10:21:17;;;;;;;4.63;1.67;;;;;;;31.71;34.09;102242.03;5008630;28;20030;-68
2023/08/21 10:23:46;;;;;;;7.93;1.80;;;;;;;31.84;33.44;102239.72;5010342;28;20305;-68
2023/08/21 10:26:12;;;;;;;4.65;1.75;;;;;;;32.54;33.26;102242.03;5009892;28;20076;-68
2023/08/21 10:29:06;;;;;;;4.32;1.55;;;;;;;32.98;33.72;102241.66;5016202;28;20489;-68
2023/08/21 10:31:35;;;;;;;5.28;1.40;;;;;;;32.52;32.65;102244.09;5004673;28;20033;-70
2023/08/21 10:34:03;;;;;;;4.20;1.30;;;;;;;32.81;33.42;102246.28;5010365;28;20037;-70
2023/08/21 10:36:43;;;;;;;6.72;1.83;;;;;;;32.95;32.72;102244.72;5005772;28;20042;-70
2023/08/21 10:39:21;;;;;;;4.72;1.23;;;;;;;32.98;31.81;102253.47;5011462;28;20492;-71
2023/08/21 10:42:02;;;;;;;5.72;1.52;;;;;;;33.04;32.73;102240.94;5015150;28;20152;-71
2023/08/21 10:44:55;;;;;;;4.57;1.65;;;;;;;33.09;32.10;102243.16;5003796;28;20454;-71
2023/08/21 10:47:27;;;;;;;3.75;1.38;;;;;;;32.79;32.03;102237.38;5013188;28;20036;-71
2023/08/21 10:50:07;;;;;;;4.43;1.20;;;;;;;33.14;32.25;102238.84;5015420;28;20444;-71
2023/08/21 10:52:42;;;;;;;3.83;1.23;;;;;;;33.12;28.60;102251.03;5009747;28;20042;-70
2023/08/21 10:55:12;;;;;;;4.63;1.05;;;;;;;33.01;29.50;102254.97;5007217;28;20437;-70
2023/08/21 10:57:38;;;;;;;4.07;1.23;;;;;;;33.10;29.64;102247.59;5010272;28;20113;-71
2023/08/21 11:00:05;;;;;;;5.72;1.30;;;;;;;33.48;29.88;102248.69;5005766;28;20489;-71
2023/08/21 11:02:31;;;;;;;4.35;1.60;;;;;;;33.58;29.20;102254.81;5007681;28;20596;-71
2023/08/21 11:04:58;;;;;;;2.40;0.80;;;;;;;32.84;29.47;102250.56;5003075;28;20412;-71
2023/08/21 11:07:25;;;;;;;3.55;1.33;;;;;;;32.69;30.27;102255.88;5010180;28;20076;-70
2023/08/21 11:09:51;;;;;;;3.50;1.50;;;;;;;33.07;30.43;102247.97;5003843;28;20363;-71
2023/08/21 11:12:21;;;;;;;4.47;1.20;;;;;;;32.99;30.95;102246.09;5008039;28;20093;-68
2023/08/21 11:14:50;;;;;;;2.83;1.30;;;;;;;33.38;30.35;102239.78;5003555;28;20489;-68
2023/08/21 11:17:23;;;;;;;3.92;1.45;;;;;;;32.67;31.66;102244.25;5003861;28;20412;-72
2023/08/21 11:19:49;;;;;;;5.35;1.52;;;;;;;32.53;31.92;102242.19;5006992;28;20026;-71